sensor_id;sensor_type;location;lat;lon;timestamp;P1;durP1;ratioP1;P2;durP2;ratioP2
34960;SDS011;30789;52.030;7.110;2022-08-16T00:02:09;7.93;;;6.30;;
34960;SDS011;30789;52.030;7.110;2022-08-16T00:04:35;9.32;;;6.50;;
34960;SDS011;30789;52.030;7.110;2022-08-16T00:07:03;9.52;;;5.95;;
34960;SDS011;30789;52.030;7.110;2022-08-16T00:09:29;8.95;;;6.68;;
34960;SDS011;30789;52.030;7.110;2022-08-16T00:11:55;7.63;;;6.30;;
34960;SDS011;30789;52.030;7.110;2022-08-16T00:14:23;8.10;;;6.65;;
34960;SDS011;30789;52.030;7.110;2022-08-16T00:16:50;10.25;;;6.60;;
34960;SDS011;30789;52.030;7.110;2022-08-16T00:19:17;8.88;;;7.07;;
34960;SDS011;30789;52.030;7.110;2022-08-16T00:21:44;8.07;;;6.18;;
34960;SDS011;30789;52.030;7.110;2022-08-16T00:24:12;9.23;;;6.40;;
34960;SDS011;30789;52.030;7.110;2022-08-16T00:26:40;7.97;;;6.05;;
34960;SDS011;30789;52.030;7.110;2022-08-16T00:29:06;9.32;;;6.47;;
34960;SDS011;30789;52.030;7.110;2022-08-16T00:31:33;8.15;;;6.38;;
34960;SDS011;30789;52.030;7.110;2022-08-16T00:34:00;11.07;;;6.75;;
34960;SDS011;30789;52.030;7.110;2022-08-16T00:36:26;9.70;;;6.28;;
34960;SDS011;30789;52.030;7.110;2022-08-16T00:38:53;7.35;;;6.43;;
34960;SDS011;30789;52.030;7.110;2022-08-16T00:41:20;7.72;;;6.70;;
34960;SDS011;30789;52.030;7.110;2022-08-16T00:43:47;11.13;;;7.28;;
34960;SDS011;30789;52.030;7.110;2022-08-16T00:46:14;11.85;;;7.80;;
34960;SDS011;30789;52.030;7.110;2022-08-16T00:48:44;10.02;;;7.65;;
34960;SDS011;30789;52.030;7.110;2022-08-16T00:51:11;8.82;;;6.68;;
34960;SDS011;30789;52.030;7.110;2022-08-16T00:53:38;8.75;;;7.40;;
34960;SDS011;30789;52.030;7.110;2022-08-16T00:56:06;9.38;;;6.55;;
34960;SDS011;30789;52.030;7.110;2022-08-16T00:58:36;9.65;;;5.43;;
34960;SDS011;30789;52.030;7.110;2022-08-16T01:01:03;8.15;;;6.13;;
34960;SDS011;30789;52.030;7.110;2022-08-16T01:03:30;8.13;;;6.20;;
34960;SDS011;30789;52.030;7.110;2022-08-16T01:05:56;8.68;;;6.32;;
34960;SDS011;30789;52.030;7.110;2022-08-16T01:08:23;7.55;;;6.22;;
34960;SDS011;30789;52.030;7.110;2022-08-16T01:10:50;8.98;;;6.95;;
34960;SDS011;30789;52.030;7.110;2022-08-16T01:13:18;7.53;;;6.70;;
34960;SDS011;30789;52.030;7.110;2022-08-16T01:15:47;8.77;;;7.43;;
34960;SDS011;30789;52.030;7.110;2022-08-16T01:18:14;8.80;;;6.85;;
34960;SDS011;30789;52.030;7.110;2022-08-16T01:20:43;7.80;;;6.57;;
34960;SDS011;30789;52.030;7.110;2022-08-16T01:23:12;11.38;;;7.68;;
34960;SDS011;30789;52.030;7.110;2022-08-16T01:25:41;10.55;;;7.68;;
34960;SDS011;30789;52.030;7.110;2022-08-16T01:28:10;8.80;;;7.63;;
34960;SDS011;30789;52.030;7.110;2022-08-16T01:30:39;11.38;;;8.00;;
34960;SDS011;30789;52.030;7.110;2022-08-16T01:33:06;11.43;;;8.50;;
34960;SDS011;30789;52.030;7.110;2022-08-16T01:35:35;9.98;;;8.63;;
34960;SDS011;30789;52.030;7.110;2022-08-16T01:38:13;11.02;;;8.50;;
34960;SDS011;30789;52.030;7.110;2022-08-16T01:40:41;11.25;;;8.45;;
34960;SDS011;30789;52.030;7.110;2022-08-16T01:43:07;12.00;;;8.25;;
34960;SDS011;30789;52.030;7.110;2022-08-16T01:45:34;12.20;;;8.10;;
34960;SDS011;30789;52.030;7.110;2022-08-16T01:48:00;10.27;;;8.32;;
34960;SDS011;30789;52.030;7.110;2022-08-16T01:50:27;10.20;;;8.45;;
34960;SDS011;30789;52.030;7.110;2022-08-16T01:52:53;10.80;;;9.68;;
34960;SDS011;30789;52.030;7.110;2022-08-16T01:55:20;11.93;;;8.90;;
34960;SDS011;30789;52.030;7.110;2022-08-16T01:57:48;12.75;;;9.57;;
34960;SDS011;30789;52.030;7.110;2022-08-16T02:00:15;10.93;;;9.15;;
34960;SDS011;30789;52.030;7.110;2022-08-16T02:02:42;12.32;;;9.25;;
34960;SDS011;30789;52.030;7.110;2022-08-16T02:05:09;13.10;;;9.07;;
34960;SDS011;30789;52.030;7.110;2022-08-16T02:07:35;11.70;;;9.30;;
34960;SDS011;30789;52.030;7.110;2022-08-16T02:10:03;11.20;;;9.00;;
34960;SDS011;30789;52.030;7.110;2022-08-16T02:12:30;10.45;;;9.35;;
34960;SDS011;30789;52.030;7.110;2022-08-16T02:14:58;12.70;;;8.90;;
34960;SDS011;30789;52.030;7.110;2022-08-16T02:17:24;12.93;;;10.00;;
34960;SDS011;30789;52.030;7.110;2022-08-16T02:19:51;12.10;;;9.95;;
34960;SDS011;30789;52.030;7.110;2022-08-16T02:22:19;10.75;;;9.65;;
34960;SDS011;30789;52.030;7.110;2022-08-16T02:24:46;12.27;;;9.40;;
34960;SDS011;30789;52.030;7.110;2022-08-16T02:27:12;10.98;;;8.50;;
34960;SDS011;30789;52.030;7.110;2022-08-16T02:29:39;12.05;;;9.35;;
34960;SDS011;30789;52.030;7.110;2022-08-16T02:32:08;11.52;;;9.13;;
34960;SDS011;30789;52.030;7.110;2022-08-16T02:34:37;12.00;;;8.40;;
34960;SDS011;30789;52.030;7.110;2022-08-16T02:37:04;12.38;;;8.70;;
34960;SDS011;30789;52.030;7.110;2022-08-16T02:39:30;12.50;;;8.95;;
34960;SDS011;30789;52.030;7.110;2022-08-16T02:41:56;9.18;;;7.88;;
34960;SDS011;30789;52.030;7.110;2022-08-16T02:44:23;11.80;;;7.70;;
34960;SDS011;30789;52.030;7.110;2022-08-16T02:46:49;10.27;;;7.63;;
34960;SDS011;30789;52.030;7.110;2022-08-16T02:49:17;10.75;;;8.05;;
34960;SDS011;30789;52.030;7.110;2022-08-16T02:51:43;14.02;;;8.75;;
34960;SDS011;30789;52.030;7.110;2022-08-16T02:54:10;8.88;;;7.88;;
34960;SDS011;30789;52.030;7.110;2022-08-16T02:56:38;10.55;;;8.63;;
34960;SDS011;30789;52.030;7.110;2022-08-16T02:59:04;11.20;;;8.75;;
34960;SDS011;30789;52.030;7.110;2022-08-16T03:01:31;10.88;;;8.35;;
34960;SDS011;30789;52.030;7.110;2022-08-16T03:03:58;10.73;;;8.85;;
34960;SDS011;30789;52.030;7.110;2022-08-16T03:06:26;11.02;;;9.35;;
34960;SDS011;30789;52.030;7.110;2022-08-16T03:08:52;13.88;;;8.85;;
34960;SDS011;30789;52.030;7.110;2022-08-16T03:11:19;11.32;;;8.90;;
34960;SDS011;30789;52.030;7.110;2022-08-16T03:13:46;11.50;;;9.05;;
34960;SDS011;30789;52.030;7.110;2022-08-16T03:16:13;10.13;;;9.07;;
34960;SDS011;30789;52.030;7.110;2022-08-16T03:18:40;12.77;;;9.90;;
34960;SDS011;30789;52.030;7.110;2022-08-16T03:21:07;10.48;;;9.07;;
34960;SDS011;30789;52.030;7.110;2022-08-16T03:23:35;11.52;;;9.10;;
34960;SDS011;30789;52.030;7.110;2022-08-16T03:26:01;11.32;;;8.57;;
34960;SDS011;30789;52.030;7.110;2022-08-16T03:28:27;10.88;;;8.75;;
34960;SDS011;30789;52.030;7.110;2022-08-16T03:30:53;11.35;;;9.27;;
34960;SDS011;30789;52.030;7.110;2022-08-16T03:33:20;10.00;;;8.85;;
34960;SDS011;30789;52.030;7.110;2022-08-16T03:35:46;10.13;;;8.50;;
34960;SDS011;30789;52.030;7.110;2022-08-16T03:38:14;11.75;;;9.18;;
34960;SDS011;30789;52.030;7.110;2022-08-16T03:40:43;10.70;;;8.63;;
34960;SDS011;30789;52.030;7.110;2022-08-16T03:43:10;10.57;;;8.13;;
34960;SDS011;30789;52.030;7.110;2022-08-16T03:45:37;13.18;;;8.27;;
34960;SDS011;30789;52.030;7.110;2022-08-16T03:48:05;10.73;;;8.77;;
34960;SDS011;30789;52.030;7.110;2022-08-16T03:50:31;10.25;;;7.57;;
34960;SDS011;30789;52.030;7.110;2022-08-16T03:52:59;10.95;;;8.23;;
34960;SDS011;30789;52.030;7.110;2022-08-16T03:55:26;10.30;;;7.70;;
34960;SDS011;30789;52.030;7.110;2022-08-16T03:57:54;10.85;;;8.05;;
34960;SDS011;30789;52.030;7.110;2022-08-16T04:00:21;10.48;;;7.57;;
34960;SDS011;30789;52.030;7.110;2022-08-16T04:02:48;10.20;;;8.15;;
34960;SDS011;30789;52.030;7.110;2022-08-16T04:05:15;11.80;;;8.07;;
34960;SDS011;30789;52.030;7.110;2022-08-16T04:07:42;9.60;;;8.15;;
34960;SDS011;30789;52.030;7.110;2022-08-16T04:10:09;10.63;;;8.52;;
34960;SDS011;30789;52.030;7.110;2022-08-16T04:12:37;10.85;;;8.45;;
34960;SDS011;30789;52.030;7.110;2022-08-16T04:15:06;11.30;;;8.27;;
34960;SDS011;30789;52.030;7.110;2022-08-16T04:17:32;9.55;;;8.07;;
34960;SDS011;30789;52.030;7.110;2022-08-16T04:19:59;10.00;;;8.93;;
34960;SDS011;30789;52.030;7.110;2022-08-16T04:22:26;9.55;;;8.20;;
34960;SDS011;30789;52.030;7.110;2022-08-16T04:24:53;9.95;;;8.50;;
34960;SDS011;30789;52.030;7.110;2022-08-16T04:27:19;9.15;;;8.05;;
34960;SDS011;30789;52.030;7.110;2022-08-16T04:29:46;11.32;;;7.95;;
34960;SDS011;30789;52.030;7.110;2022-08-16T04:32:13;9.10;;;7.13;;
34960;SDS011;30789;52.030;7.110;2022-08-16T04:34:40;10.75;;;8.32;;
34960;SDS011;30789;52.030;7.110;2022-08-16T04:37:06;9.13;;;7.25;;
34960;SDS011;30789;52.030;7.110;2022-08-16T04:39:33;10.05;;;7.88;;
34960;SDS011;30789;52.030;7.110;2022-08-16T04:41:59;10.50;;;7.50;;
34960;SDS011;30789;52.030;7.110;2022-08-16T04:44:26;10.43;;;7.55;;
34960;SDS011;30789;52.030;7.110;2022-08-16T04:46:52;9.35;;;7.90;;
34960;SDS011;30789;52.030;7.110;2022-08-16T04:49:20;9.00;;;7.75;;
34960;SDS011;30789;52.030;7.110;2022-08-16T04:51:46;10.15;;;7.53;;
34960;SDS011;30789;52.030;7.110;2022-08-16T04:54:13;9.95;;;7.38;;
34960;SDS011;30789;52.030;7.110;2022-08-16T04:56:39;11.70;;;7.47;;
34960;SDS011;30789;52.030;7.110;2022-08-16T04:59:05;11.32;;;7.68;;
34960;SDS011;30789;52.030;7.110;2022-08-16T05:01:33;8.98;;;7.50;;
34960;SDS011;30789;52.030;7.110;2022-08-16T05:03:59;9.95;;;7.93;;
34960;SDS011;30789;52.030;7.110;2022-08-16T05:06:27;10.00;;;7.50;;
34960;SDS011;30789;52.030;7.110;2022-08-16T05:08:54;8.88;;;7.03;;
34960;SDS011;30789;52.030;7.110;2022-08-16T05:11:20;9.70;;;8.05;;
34960;SDS011;30789;52.030;7.110;2022-08-16T05:13:49;9.25;;;7.53;;
34960;SDS011;30789;52.030;7.110;2022-08-16T05:16:16;9.30;;;6.63;;
34960;SDS011;30789;52.030;7.110;2022-08-16T05:18:43;8.55;;;6.88;;
34960;SDS011;30789;52.030;7.110;2022-08-16T05:21:10;9.15;;;6.57;;
34960;SDS011;30789;52.030;7.110;2022-08-16T05:23:37;8.88;;;6.70;;
34960;SDS011;30789;52.030;7.110;2022-08-16T05:26:04;10.82;;;7.35;;
34960;SDS011;30789;52.030;7.110;2022-08-16T05:28:30;8.90;;;6.72;;
34960;SDS011;30789;52.030;7.110;2022-08-16T05:30:56;8.07;;;6.97;;
34960;SDS011;30789;52.030;7.110;2022-08-16T05:33:23;10.05;;;7.10;;
34960;SDS011;30789;52.030;7.110;2022-08-16T05:35:50;7.32;;;6.55;;
34960;SDS011;30789;52.030;7.110;2022-08-16T05:38:16;9.35;;;6.93;;
34960;SDS011;30789;52.030;7.110;2022-08-16T05:40:44;10.75;;;6.78;;
34960;SDS011;30789;52.030;7.110;2022-08-16T05:43:10;10.30;;;6.93;;
34960;SDS011;30789;52.030;7.110;2022-08-16T05:45:37;8.02;;;6.35;;
34960;SDS011;30789;52.030;7.110;2022-08-16T05:48:03;7.68;;;6.88;;
34960;SDS011;30789;52.030;7.110;2022-08-16T05:50:29;12.25;;;6.75;;
34960;SDS011;30789;52.030;7.110;2022-08-16T05:52:56;8.00;;;6.68;;
34960;SDS011;30789;52.030;7.110;2022-08-16T05:55:22;8.35;;;6.45;;
34960;SDS011;30789;52.030;7.110;2022-08-16T05:57:50;10.60;;;6.88;;
34960;SDS011;30789;52.030;7.110;2022-08-16T06:00:16;6.97;;;6.20;;
34960;SDS011;30789;52.030;7.110;2022-08-16T06:02:42;7.60;;;6.03;;
34960;SDS011;30789;52.030;7.110;2022-08-16T06:05:09;7.40;;;6.35;;
34960;SDS011;30789;52.030;7.110;2022-08-16T06:07:35;8.63;;;6.25;;
34960;SDS011;30789;52.030;7.110;2022-08-16T06:10:02;9.57;;;5.78;;
34960;SDS011;30789;52.030;7.110;2022-08-16T06:12:29;7.75;;;6.47;;
34960;SDS011;30789;52.030;7.110;2022-08-16T06:14:58;6.70;;;5.95;;
34960;SDS011;30789;52.030;7.110;2022-08-16T06:17:25;7.28;;;5.80;;
34960;SDS011;30789;52.030;7.110;2022-08-16T06:19:52;7.20;;;6.20;;
34960;SDS011;30789;52.030;7.110;2022-08-16T06:22:19;7.50;;;6.43;;
34960;SDS011;30789;52.030;7.110;2022-08-16T06:24:45;10.25;;;6.05;;
34960;SDS011;30789;52.030;7.110;2022-08-16T06:27:11;6.65;;;5.18;;
34960;SDS011;30789;52.030;7.110;2022-08-16T06:29:38;9.85;;;6.43;;
34960;SDS011;30789;52.030;7.110;2022-08-16T06:32:06;8.50;;;6.45;;
34960;SDS011;30789;52.030;7.110;2022-08-16T06:34:32;6.85;;;5.85;;
34960;SDS011;30789;52.030;7.110;2022-08-16T06:36:59;10.35;;;5.93;;
34960;SDS011;30789;52.030;7.110;2022-08-16T06:39:26;7.05;;;5.95;;
34960;SDS011;30789;52.030;7.110;2022-08-16T06:41:52;7.63;;;6.20;;
34960;SDS011;30789;52.030;7.110;2022-08-16T06:44:18;7.78;;;6.10;;
34960;SDS011;30789;52.030;7.110;2022-08-16T06:46:45;8.88;;;6.25;;
34960;SDS011;30789;52.030;7.110;2022-08-16T06:49:12;7.97;;;6.35;;
34960;SDS011;30789;52.030;7.110;2022-08-16T06:51:39;8.18;;;5.63;;
34960;SDS011;30789;52.030;7.110;2022-08-16T06:54:06;9.98;;;6.25;;
34960;SDS011;30789;52.030;7.110;2022-08-16T06:56:32;9.43;;;6.30;;
34960;SDS011;30789;52.030;7.110;2022-08-16T06:58:59;9.15;;;6.00;;
34960;SDS011;30789;52.030;7.110;2022-08-16T07:01:25;7.07;;;6.22;;
34960;SDS011;30789;52.030;7.110;2022-08-16T07:03:52;8.15;;;5.55;;
34960;SDS011;30789;52.030;7.110;2022-08-16T07:06:20;8.45;;;6.57;;
34960;SDS011;30789;52.030;7.110;2022-08-16T07:08:47;8.60;;;5.78;;
34960;SDS011;30789;52.030;7.110;2022-08-16T07:11:13;7.15;;;5.78;;
34960;SDS011;30789;52.030;7.110;2022-08-16T07:13:40;7.38;;;6.50;;
34960;SDS011;30789;52.030;7.110;2022-08-16T07:16:07;8.48;;;6.55;;
34960;SDS011;30789;52.030;7.110;2022-08-16T07:18:38;7.30;;;6.15;;
34960;SDS011;30789;52.030;7.110;2022-08-16T07:21:06;8.73;;;6.00;;
34960;SDS011;30789;52.030;7.110;2022-08-16T07:23:34;10.13;;;6.43;;
34960;SDS011;30789;52.030;7.110;2022-08-16T07:26:00;6.72;;;5.70;;
34960;SDS011;30789;52.030;7.110;2022-08-16T07:28:27;7.80;;;6.38;;
34960;SDS011;30789;52.030;7.110;2022-08-16T07:30:53;7.97;;;6.22;;
34960;SDS011;30789;52.030;7.110;2022-08-16T07:33:19;9.25;;;6.60;;
34960;SDS011;30789;52.030;7.110;2022-08-16T07:35:46;7.15;;;6.10;;
34960;SDS011;30789;52.030;7.110;2022-08-16T07:38:12;8.43;;;6.25;;
34960;SDS011;30789;52.030;7.110;2022-08-16T07:40:40;7.30;;;5.85;;
34960;SDS011;30789;52.030;7.110;2022-08-16T07:43:06;8.18;;;6.32;;
34960;SDS011;30789;52.030;7.110;2022-08-16T07:45:32;8.80;;;6.38;;
34960;SDS011;30789;52.030;7.110;2022-08-16T07:47:59;9.50;;;6.57;;
34960;SDS011;30789;52.030;7.110;2022-08-16T07:50:25;12.40;;;7.22;;
34960;SDS011;30789;52.030;7.110;2022-08-16T07:52:52;9.23;;;6.35;;
34960;SDS011;30789;52.030;7.110;2022-08-16T07:55:18;9.60;;;6.55;;
34960;SDS011;30789;52.030;7.110;2022-08-16T07:57:46;10.52;;;7.45;;
34960;SDS011;30789;52.030;7.110;2022-08-16T08:00:13;8.75;;;6.75;;
34960;SDS011;30789;52.030;7.110;2022-08-16T08:02:39;7.30;;;6.60;;
34960;SDS011;30789;52.030;7.110;2022-08-16T08:05:07;9.45;;;6.95;;
34960;SDS011;30789;52.030;7.110;2022-08-16T08:07:34;10.88;;;6.80;;
34960;SDS011;30789;52.030;7.110;2022-08-16T08:10:00;10.48;;;7.28;;
34960;SDS011;30789;52.030;7.110;2022-08-16T08:12:27;8.25;;;6.70;;
34960;SDS011;30789;52.030;7.110;2022-08-16T08:14:54;9.90;;;7.05;;
34960;SDS011;30789;52.030;7.110;2022-08-16T08:17:20;9.95;;;6.22;;
34960;SDS011;30789;52.030;7.110;2022-08-16T08:19:47;8.43;;;7.40;;
34960;SDS011;30789;52.030;7.110;2022-08-16T08:22:13;9.98;;;7.85;;
34960;SDS011;30789;52.030;7.110;2022-08-16T08:24:39;8.50;;;7.55;;
34960;SDS011;30789;52.030;7.110;2022-08-16T08:27:06;9.15;;;7.82;;
34960;SDS011;30789;52.030;7.110;2022-08-16T08:29:34;10.50;;;7.68;;
34960;SDS011;30789;52.030;7.110;2022-08-16T08:32:02;9.30;;;7.38;;
34960;SDS011;30789;52.030;7.110;2022-08-16T08:34:28;8.48;;;7.55;;
34960;SDS011;30789;52.030;7.110;2022-08-16T08:36:55;9.15;;;7.25;;
34960;SDS011;30789;52.030;7.110;2022-08-16T08:39:21;9.43;;;7.75;;
34960;SDS011;30789;52.030;7.110;2022-08-16T08:41:47;8.15;;;7.10;;
34960;SDS011;30789;52.030;7.110;2022-08-16T08:44:14;9.77;;;6.75;;
34960;SDS011;30789;52.030;7.110;2022-08-16T08:46:40;10.43;;;5.97;;
34960;SDS011;30789;52.030;7.110;2022-08-16T08:49:08;7.53;;;6.65;;
34960;SDS011;30789;52.030;7.110;2022-08-16T08:51:34;6.78;;;5.65;;
34960;SDS011;30789;52.030;7.110;2022-08-16T08:54:01;9.38;;;6.20;;
34960;SDS011;30789;52.030;7.110;2022-08-16T08:56:28;7.25;;;6.45;;
34960;SDS011;30789;52.030;7.110;2022-08-16T08:58:57;6.85;;;5.82;;
34960;SDS011;30789;52.030;7.110;2022-08-16T09:01:23;7.22;;;6.00;;
34960;SDS011;30789;52.030;7.110;2022-08-16T09:03:52;8.70;;;6.05;;
34960;SDS011;30789;52.030;7.110;2022-08-16T09:06:20;7.30;;;5.90;;
34960;SDS011;30789;52.030;7.110;2022-08-16T09:08:47;7.85;;;5.72;;
34960;SDS011;30789;52.030;7.110;2022-08-16T09:11:13;7.38;;;5.60;;
34960;SDS011;30789;52.030;7.110;2022-08-16T09:13:39;8.27;;;6.18;;
34960;SDS011;30789;52.030;7.110;2022-08-16T09:16:05;9.18;;;6.20;;
34960;SDS011;30789;52.030;7.110;2022-08-16T09:18:32;6.50;;;5.40;;
34960;SDS011;30789;52.030;7.110;2022-08-16T09:20:58;6.63;;;5.95;;
34960;SDS011;30789;52.030;7.110;2022-08-16T09:23:26;7.32;;;5.68;;
34960;SDS011;30789;52.030;7.110;2022-08-16T09:25:53;6.32;;;5.40;;
34960;SDS011;30789;52.030;7.110;2022-08-16T09:28:19;7.55;;;5.38;;
34960;SDS011;30789;52.030;7.110;2022-08-16T09:30:45;5.75;;;5.22;;
34960;SDS011;30789;52.030;7.110;2022-08-16T09:33:12;5.65;;;5.13;;
34960;SDS011;30789;52.030;7.110;2022-08-16T09:35:42;8.27;;;5.27;;
34960;SDS011;30789;52.030;7.110;2022-08-16T09:38:08;5.82;;;5.25;;
34960;SDS011;30789;52.030;7.110;2022-08-16T09:40:37;5.45;;;4.90;;
34960;SDS011;30789;52.030;7.110;2022-08-16T09:43:05;7.00;;;5.20;;
34960;SDS011;30789;52.030;7.110;2022-08-16T09:45:31;5.68;;;4.97;;
34960;SDS011;30789;52.030;7.110;2022-08-16T09:48:03;5.82;;;5.28;;
34960;SDS011;30789;52.030;7.110;2022-08-16T09:50:29;5.88;;;4.78;;
34960;SDS011;30789;52.030;7.110;2022-08-16T09:52:56;5.32;;;4.80;;
34960;SDS011;30789;52.030;7.110;2022-08-16T09:55:23;5.20;;;4.70;;
34960;SDS011;30789;52.030;7.110;2022-08-16T09:57:51;5.63;;;4.80;;
34960;SDS011;30789;52.030;7.110;2022-08-16T10:00:17;6.35;;;4.60;;
34960;SDS011;30789;52.030;7.110;2022-08-16T10:02:43;4.80;;;4.20;;
34960;SDS011;30789;52.030;7.110;2022-08-16T10:05:11;4.35;;;3.92;;
34960;SDS011;30789;52.030;7.110;2022-08-16T10:07:37;5.88;;;4.07;;
34960;SDS011;30789;52.030;7.110;2022-08-16T10:10:04;4.13;;;3.80;;
34960;SDS011;30789;52.030;7.110;2022-08-16T10:12:31;4.35;;;3.20;;
34960;SDS011;30789;52.030;7.110;2022-08-16T10:15:18;6.75;;;4.47;;
34960;SDS011;30789;52.030;7.110;2022-08-16T10:17:45;6.30;;;3.47;;
34960;SDS011;30789;52.030;7.110;2022-08-16T10:20:12;4.70;;;3.40;;
34960;SDS011;30789;52.030;7.110;2022-08-16T10:22:38;4.72;;;3.55;;
34960;SDS011;30789;52.030;7.110;2022-08-16T10:25:05;3.60;;;3.30;;
34960;SDS011;30789;52.030;7.110;2022-08-16T10:27:32;4.15;;;3.78;;
34960;SDS011;30789;52.030;7.110;2022-08-16T10:29:59;5.03;;;3.50;;
34960;SDS011;30789;52.030;7.110;2022-08-16T10:32:26;4.45;;;3.65;;
34960;SDS011;30789;52.030;7.110;2022-08-16T10:34:53;3.90;;;3.42;;
34960;SDS011;30789;52.030;7.110;2022-08-16T10:37:19;4.45;;;3.53;;
34960;SDS011;30789;52.030;7.110;2022-08-16T10:39:45;5.18;;;3.78;;
34960;SDS011;30789;52.030;7.110;2022-08-16T10:42:12;4.78;;;3.47;;
34960;SDS011;30789;52.030;7.110;2022-08-16T10:44:38;6.47;;;4.10;;
34960;SDS011;30789;52.030;7.110;2022-08-16T10:47:05;4.75;;;4.10;;
34960;SDS011;30789;52.030;7.110;2022-08-16T10:49:32;6.05;;;3.78;;
34960;SDS011;30789;52.030;7.110;2022-08-16T10:51:59;5.80;;;3.38;;
34960;SDS011;30789;52.030;7.110;2022-08-16T10:54:25;4.05;;;3.55;;
34960;SDS011;30789;52.030;7.110;2022-08-16T10:56:52;3.92;;;3.08;;
34960;SDS011;30789;52.030;7.110;2022-08-16T10:59:20;3.15;;;2.70;;
34960;SDS011;30789;52.030;7.110;2022-08-16T11:01:46;5.13;;;3.08;;
34960;SDS011;30789;52.030;7.110;2022-08-16T11:04:13;3.80;;;3.40;;
34960;SDS011;30789;52.030;7.110;2022-08-16T11:06:40;3.22;;;2.65;;
34960;SDS011;30789;52.030;7.110;2022-08-16T11:09:07;4.15;;;2.72;;
34960;SDS011;30789;52.030;7.110;2022-08-16T11:11:33;4.78;;;2.90;;
34960;SDS011;30789;52.030;7.110;2022-08-16T11:13:59;4.97;;;3.35;;
34960;SDS011;30789;52.030;7.110;2022-08-16T11:16:26;4.10;;;3.28;;
34960;SDS011;30789;52.030;7.110;2022-08-16T11:18:53;5.15;;;3.17;;
34960;SDS011;30789;52.030;7.110;2022-08-16T11:21:20;4.82;;;2.97;;
34960;SDS011;30789;52.030;7.110;2022-08-16T11:23:49;5.22;;;3.45;;
34960;SDS011;30789;52.030;7.110;2022-08-16T11:26:15;5.70;;;3.42;;
34960;SDS011;30789;52.030;7.110;2022-08-16T11:28:41;5.97;;;3.22;;
34960;SDS011;30789;52.030;7.110;2022-08-16T11:33:34;3.13;;;2.83;;
34960;SDS011;30789;52.030;7.110;2022-08-16T11:36:00;7.53;;;3.30;;
34960;SDS011;30789;52.030;7.110;2022-08-16T11:38:26;6.75;;;3.20;;
34960;SDS011;30789;52.030;7.110;2022-08-16T11:40:55;5.15;;;3.15;;
34960;SDS011;30789;52.030;7.110;2022-08-16T11:43:22;3.78;;;2.80;;
34960;SDS011;30789;52.030;7.110;2022-08-16T11:45:49;4.10;;;2.90;;
34960;SDS011;30789;52.030;7.110;2022-08-16T11:48:15;5.78;;;3.38;;
34960;SDS011;30789;52.030;7.110;2022-08-16T11:50:43;3.33;;;2.90;;
34960;SDS011;30789;52.030;7.110;2022-08-16T11:53:10;6.70;;;2.85;;
34960;SDS011;30789;52.030;7.110;2022-08-16T11:55:37;4.25;;;3.10;;
34960;SDS011;30789;52.030;7.110;2022-08-16T11:58:07;4.38;;;2.75;;
34960;SDS011;30789;52.030;7.110;2022-08-16T12:00:34;4.03;;;3.08;;
34960;SDS011;30789;52.030;7.110;2022-08-16T12:03:01;4.53;;;2.92;;
34960;SDS011;30789;52.030;7.110;2022-08-16T12:05:27;3.75;;;3.25;;
34960;SDS011;30789;52.030;7.110;2022-08-16T12:07:55;3.42;;;2.63;;
34960;SDS011;30789;52.030;7.110;2022-08-16T12:10:22;2.70;;;2.50;;
34960;SDS011;30789;52.030;7.110;2022-08-16T12:12:48;3.20;;;2.90;;
34960;SDS011;30789;52.030;7.110;2022-08-16T12:15:17;5.13;;;3.08;;
34960;SDS011;30789;52.030;7.110;2022-08-16T12:17:44;6.07;;;3.15;;
34960;SDS011;30789;52.030;7.110;2022-08-16T12:20:12;2.70;;;2.50;;
34960;SDS011;30789;52.030;7.110;2022-08-16T12:22:38;4.00;;;3.00;;
34960;SDS011;30789;52.030;7.110;2022-08-16T12:25:05;4.18;;;3.13;;
34960;SDS011;30789;52.030;7.110;2022-08-16T12:27:32;3.92;;;3.53;;
34960;SDS011;30789;52.030;7.110;2022-08-16T12:29:59;3.25;;;2.92;;
34960;SDS011;30789;52.030;7.110;2022-08-16T12:32:26;4.00;;;2.88;;
34960;SDS011;30789;52.030;7.110;2022-08-16T12:34:53;3.90;;;2.80;;
34960;SDS011;30789;52.030;7.110;2022-08-16T12:37:19;2.95;;;2.70;;
34960;SDS011;30789;52.030;7.110;2022-08-16T12:39:46;4.00;;;3.38;;
34960;SDS011;30789;52.030;7.110;2022-08-16T12:42:12;3.15;;;2.85;;
34960;SDS011;30789;52.030;7.110;2022-08-16T12:44:38;3.13;;;2.83;;
34960;SDS011;30789;52.030;7.110;2022-08-16T12:47:06;4.00;;;3.00;;
34960;SDS011;30789;52.030;7.110;2022-08-16T12:49:52;5.22;;;3.33;;
34960;SDS011;30789;52.030;7.110;2022-08-16T12:52:18;3.20;;;2.90;;
34960;SDS011;30789;52.030;7.110;2022-08-16T12:54:44;3.17;;;2.83;;
34960;SDS011;30789;52.030;7.110;2022-08-16T12:57:11;3.40;;;2.90;;
34960;SDS011;30789;52.030;7.110;2022-08-16T12:59:37;2.63;;;2.42;;
34960;SDS011;30789;52.030;7.110;2022-08-16T13:02:04;3.15;;;2.95;;
34960;SDS011;30789;52.030;7.110;2022-08-16T13:04:32;4.85;;;2.95;;
34960;SDS011;30789;52.030;7.110;2022-08-16T13:07:01;2.80;;;2.60;;
34960;SDS011;30789;52.030;7.110;2022-08-16T13:09:28;3.05;;;2.55;;
34960;SDS011;30789;52.030;7.110;2022-08-16T13:11:58;4.18;;;2.85;;
34960;SDS011;30789;52.030;7.110;2022-08-16T13:14:28;3.38;;;2.63;;
34960;SDS011;30789;52.030;7.110;2022-08-16T13:16:57;4.47;;;2.60;;
34960;SDS011;30789;52.030;7.110;2022-08-16T13:19:23;3.95;;;2.60;;
34960;SDS011;30789;52.030;7.110;2022-08-16T13:21:50;2.38;;;2.17;;
34960;SDS011;30789;52.030;7.110;2022-08-16T13:24:17;2.80;;;2.60;;
34960;SDS011;30789;52.030;7.110;2022-08-16T13:26:44;2.75;;;2.38;;
34960;SDS011;30789;52.030;7.110;2022-08-16T13:29:10;3.42;;;2.58;;
34960;SDS011;30789;52.030;7.110;2022-08-16T13:31:36;2.88;;;2.67;;
34960;SDS011;30789;52.030;7.110;2022-08-16T13:34:03;4.32;;;2.63;;
34960;SDS011;30789;52.030;7.110;2022-08-16T13:36:29;4.03;;;2.55;;
34960;SDS011;30789;52.030;7.110;2022-08-16T13:38:56;2.55;;;2.35;;
34960;SDS011;30789;52.030;7.110;2022-08-16T13:41:24;2.60;;;2.40;;
34960;SDS011;30789;52.030;7.110;2022-08-16T13:43:51;3.70;;;2.60;;
34960;SDS011;30789;52.030;7.110;2022-08-16T13:46:17;5.47;;;2.53;;
34960;SDS011;30789;52.030;7.110;2022-08-16T13:48:43;3.13;;;2.83;;
34960;SDS011;30789;52.030;7.110;2022-08-16T13:51:11;2.45;;;2.25;;
34960;SDS011;30789;52.030;7.110;2022-08-16T13:53:37;4.05;;;2.67;;
34960;SDS011;30789;52.030;7.110;2022-08-16T13:56:03;4.63;;;2.63;;
34960;SDS011;30789;52.030;7.110;2022-08-16T13:58:31;5.43;;;3.15;;
34960;SDS011;30789;52.030;7.110;2022-08-16T14:00:58;5.10;;;3.13;;
34960;SDS011;30789;52.030;7.110;2022-08-16T14:03:24;6.57;;;3.22;;
34960;SDS011;30789;52.030;7.110;2022-08-16T14:05:51;3.53;;;3.15;;
34960;SDS011;30789;52.030;7.110;2022-08-16T14:08:17;6.55;;;2.75;;
34960;SDS011;30789;52.030;7.110;2022-08-16T14:10:44;4.93;;;2.45;;
34960;SDS011;30789;52.030;7.110;2022-08-16T14:13:11;3.95;;;2.60;;
34960;SDS011;30789;52.030;7.110;2022-08-16T14:18:06;4.78;;;3.22;;
34960;SDS011;30789;52.030;7.110;2022-08-16T14:20:32;3.03;;;2.70;;
34960;SDS011;30789;52.030;7.110;2022-08-16T14:22:58;4.47;;;2.78;;
34960;SDS011;30789;52.030;7.110;2022-08-16T14:25:25;3.25;;;2.47;;
34960;SDS011;30789;52.030;7.110;2022-08-16T14:27:51;2.92;;;2.58;;
34960;SDS011;30789;52.030;7.110;2022-08-16T14:30:18;3.10;;;2.78;;
34960;SDS011;30789;52.030;7.110;2022-08-16T14:32:44;4.40;;;2.72;;
34960;SDS011;30789;52.030;7.110;2022-08-16T14:35:14;2.65;;;2.45;;
34960;SDS011;30789;52.030;7.110;2022-08-16T14:37:41;3.00;;;2.70;;
34960;SDS011;30789;52.030;7.110;2022-08-16T14:40:09;2.97;;;2.58;;
34960;SDS011;30789;52.030;7.110;2022-08-16T14:42:35;2.83;;;2.45;;
34960;SDS011;30789;52.030;7.110;2022-08-16T14:45:03;9.35;;;2.80;;
34960;SDS011;30789;52.030;7.110;2022-08-16T14:47:29;2.80;;;2.60;;